Time;durP1;ratioP1;P1;durP2;ratioP2;P2;SDS_P1;SDS_P2;PMS_P1;PMS_P2;Temp;Humidity;BMP_temperature;BMP_pressure;BME280_temperature;BME280_humidity;BME280_pressure;Samples;Min_cycle;Max_cycle;Signal;HPM_P1;HPM_P2
2022/09/08 00:00:27;;;;;;;;;2.00;2.00;;;;;23.24;37.56;100943.23;110376;1264;12739;-72
2022/09/08 00:03:02;;;;;;;;;2.00;2.00;;;;;23.24;37.50;100944.31;110459;1264;13743;-71
2022/09/08 00:05:29;;;;;;;;;2.00;2.00;;;;;23.24;37.49;100939.56;110414;1264;13383;-72
2022/09/08 00:07:59;;;;;;;;;2.00;2.00;;;;;23.24;37.55;100936.73;110394;1264;14401;-71
2022/09/08 00:10:26;;;;;;;;;3.00;2.33;;;;;23.25;37.47;100934.81;110375;1264;14758;-72
2022/09/08 00:12:54;;;;;;;;;2.00;2.00;;;;;23.24;37.56;100931.16;110274;1264;10426;-72
2022/09/08 00:15:21;;;;;;;;;2.00;2.00;;;;;23.24;37.47;100935.21;110372;1264;13263;-73
2022/09/08 00:17:48;;;;;;;;;2.00;2.00;;;;;23.23;37.51;100931.75;110467;1264;14023;-72
2022/09/08 00:20:16;;;;;;;;;3.00;3.00;;;;;23.24;37.47;100933.76;110450;1264;13663;-72
2022/09/08 00:22:44;;;;;;;;;2.33;2.33;;;;;23.25;37.41;100930.60;110440;1264;13027;-72
2022/09/08 00:25:11;;;;;;;;;2.00;2.00;;;;;23.26;37.43;100937.75;110456;1264;14440;-72
2022/09/08 00:27:39;;;;;;;;;2.00;2.00;;;;;23.25;37.47;100940.23;110498;1264;14559;-72
2022/09/08 00:30:06;;;;;;;;;3.00;3.00;;;;;23.25;37.41;100944.45;110453;1264;14666;-71
2022/09/08 00:32:34;;;;;;;;;2.00;2.00;;;;;23.25;37.44;100946.60;110431;1264;14231;-71
2022/09/08 00:35:01;;;;;;;;;2.00;2.00;;;;;23.26;37.47;100943.59;110455;1264;14282;-72
2022/09/08 00:37:32;;;;;;;;;2.00;2.00;;;;;23.24;37.47;100946.33;110462;1263;13999;-71
2022/09/08 00:39:59;;;;;;;;;2.00;2.00;;;;;23.24;37.42;100940.65;110439;1264;14284;-71
2022/09/08 00:42:28;;;;;;;;;2.00;2.00;;;;;23.24;37.46;100938.84;110453;1264;10538;-72
2022/09/08 00:44:55;;;;;;;;;2.00;2.00;;;;;23.24;37.48;100936.70;110415;1264;13328;-71
2022/09/08 00:47:23;;;;;;;;;3.00;2.00;;;;;23.25;37.40;100932.41;110385;1264;17828;-72
2022/09/08 00:49:50;;;;;;;;;2.00;2.00;;;;;23.25;37.42;100934.77;110262;1264;14598;-71
2022/09/08 00:52:18;;;;;;;;;2.00;2.00;;;;;23.25;37.37;100941.17;110427;1264;13112;-72
2022/09/08 00:54:45;;;;;;;;;2.33;2.33;;;;;23.24;37.39;100939.42;110379;1264;13113;-71
2022/09/08 00:57:13;;;;;;;;;2.00;2.00;;;;;23.24;37.42;100939.21;110458;1264;14719;-71
2022/09/08 00:59:42;;;;;;;;;2.00;2.00;;;;;23.24;37.34;100936.86;110469;1264;14600;-71
2022/09/08 01:02:10;;;;;;;;;3.00;2.00;;;;;23.23;37.38;100934.02;110410;1264;14431;-70
2022/09/08 01:04:37;;;;;;;;;2.00;2.00;;;;;23.24;37.34;100932.55;110401;1264;13892;-72
2022/09/08 01:12:47;;;;;;;;;3.00;2.00;;;;;23.23;37.38;100940.21;110478;1264;13384;-72
2022/09/08 01:15:15;;;;;;;;;3.00;2.00;;;;;23.24;37.38;100943.50;110406;1264;14703;-71
2022/09/08 01:17:42;;;;;;;;;2.67;2.67;;;;;23.24;37.35;100938.64;110386;1264;13797;-71
2022/09/08 01:20:10;;;;;;;;;2.00;2.00;;;;;23.23;37.38;100934.20;110226;1264;15072;-72
2022/09/08 01:22:38;;;;;;;;;2.00;2.00;;;;;23.24;37.40;100934.91;110270;1264;13750;-72
2022/09/08 01:25:06;;;;;;;;;2.00;2.00;;;;;23.23;37.42;100925.83;110468;1264;14557;-73
2022/09/08 01:27:33;;;;;;;;;3.00;3.00;;;;;23.23;37.37;100930.41;110477;1264;12991;-72
2022/09/08 01:30:01;;;;;;;;;2.00;2.00;;;;;23.23;37.41;100930.20;110465;1263;15231;-72
2022/09/08 01:32:28;;;;;;;;;3.00;3.00;;;;;23.23;37.40;100933.56;110446;1264;14732;-73
2022/09/08 01:34:55;;;;;;;;;2.00;2.00;;;;;23.23;37.42;100934.11;110459;1264;13858;-72
2022/09/08 01:37:23;;;;;;;;;2.00;2.00;;;;;23.22;37.46;100930.39;110438;1264;14494;-72
2022/09/08 01:39:50;;;;;;;;;2.00;2.00;;;;;23.22;37.44;100934.27;110469;1263;13041;-71
2022/09/08 01:42:18;;;;;;;;;3.00;2.00;;;;;23.20;37.42;100930.01;110460;1264;14693;-73
2022/09/08 01:44:45;;;;;;;;;3.00;2.00;;;;;23.20;37.40;100932.02;110425;1264;14235;-71
2022/09/08 01:47:12;;;;;;;;;2.00;2.00;;;;;23.20;37.44;100932.06;110436;1263;15029;-71
2022/09/08 01:49:40;;;;;;;;;2.00;2.00;;;;;23.19;37.37;100929.66;110445;1264;13208;-73
2022/09/08 01:52:07;;;;;;;;;2.00;2.00;;;;;23.19;37.47;100929.86;110453;1264;14860;-73
2022/09/08 01:54:35;;;;;;;;;3.00;3.00;;;;;23.19;37.43;100930.33;110496;1263;13208;-72
2022/09/08 01:57:02;;;;;;;;;3.00;2.00;;;;;23.18;37.44;100920.95;110364;1264;13442;-73
2022/09/08 01:59:30;;;;;;;;;2.33;2.33;;;;;23.18;37.42;100924.59;110439;1264;14074;-72
2022/09/08 02:01:58;;;;;;;;;2.67;2.00;;;;;23.19;37.44;100921.07;110343;1264;14072;-72
2022/09/08 02:04:26;;;;;;;;;2.00;2.00;;;;;23.19;37.43;100922.52;110447;1263;14444;-72
2022/09/08 02:06:53;;;;;;;;;2.00;2.00;;;;;23.18;37.41;100918.17;110469;1263;13161;-72
2022/09/08 02:09:22;;;;;;;;;2.00;2.00;;;;;23.20;37.40;100910.73;110425;1264;14675;-72
2022/09/08 02:11:51;;;;;;;;;2.67;2.33;;;;;23.20;37.50;100907.66;110482;1263;14483;-72
2022/09/08 02:14:19;;;;;;;;;2.00;2.00;;;;;23.20;37.46;100902.02;110463;1264;14431;-71
2022/09/08 02:16:46;;;;;;;;;3.00;2.00;;;;;23.20;37.40;100898.54;110464;1264;13051;-72
2022/09/08 02:19:14;;;;;;;;;3.00;3.00;;;;;23.20;37.39;100901.81;110459;1264;14342;-72
2022/09/08 02:21:41;;;;;;;;;2.00;2.00;;;;;23.21;37.43;100894.25;110487;1263;13082;-72
2022/09/08 02:24:09;;;;;;;;;2.67;2.33;;;;;23.21;37.36;100898.41;110382;1263;16794;-71
2022/09/08 02:26:38;;;;;;;;;2.00;2.00;;;;;23.21;37.43;100899.92;110339;1264;14839;-71
2022/09/08 02:29:08;;;;;;;;;2.00;2.00;;;;;23.18;37.38;100901.05;110431;1263;14541;-72
2022/09/08 02:31:36;;;;;;;;;2.00;2.00;;;;;23.18;37.40;100897.63;110326;1264;15000;-72
2022/09/08 02:34:03;;;;;;;;;2.00;2.00;;;;;23.19;37.37;100901.39;110446;1264;13724;-71
2022/09/08 02:36:30;;;;;;;;;3.00;2.33;;;;;23.20;37.41;100898.73;110483;1264;13086;-73
2022/09/08 02:38:58;;;;;;;;;2.00;2.00;;;;;23.19;37.35;100896.64;110467;1264;14177;-73
2022/09/08 02:41:25;;;;;;;;;2.00;2.00;;;;;23.19;37.33;100897.86;110371;1264;13728;-72
2022/09/08 02:43:52;;;;;;;;;2.00;2.00;;;;;23.18;37.41;100899.27;110463;1261;14718;-72
2022/09/08 02:46:20;;;;;;;;;2.00;2.00;;;;;23.18;37.38;100895.06;110441;1264;13052;-72
2022/09/08 02:48:47;;;;;;;;;3.67;2.33;;;;;23.18;37.35;100893.80;110452;1264;10534;-72
2022/09/08 02:51:17;;;;;;;;;1.00;1.00;;;;;23.18;37.33;100890.66;110418;1264;15055;-71
2022/09/08 02:53:44;;;;;;;;;2.67;2.67;;;;;23.19;37.32;100887.13;110401;1264;14320;-66
2022/09/08 02:56:11;;;;;;;;;2.00;2.00;;;;;23.20;37.32;100891.47;110396;1264;15091;-71
2022/09/08 02:58:39;;;;;;;;;2.00;2.00;;;;;23.18;37.30;100890.69;110391;1264;15239;-71
2022/09/08 03:01:06;;;;;;;;;2.67;2.00;;;;;23.18;37.36;100896.54;110490;1264;13867;-71
2022/09/08 03:03:33;;;;;;;;;3.00;2.00;;;;;23.16;37.32;100898.17;110517;1264;13276;-72
2022/09/08 03:06:02;;;;;;;;;3.00;3.00;;;;;23.17;37.40;100900.75;110420;1264;15157;-71
2022/09/08 03:08:30;;;;;;;;;2.00;2.00;;;;;23.16;37.31;100896.92;110445;1264;14989;-72
2022/09/08 03:10:57;;;;;;;;;2.67;2.67;;;;;23.16;37.33;100895.10;110491;1264;15538;-71
2022/09/08 03:13:25;;;;;;;;;2.00;2.00;;;;;23.15;37.27;100895.69;110372;1264;15322;-73
2022/09/08 03:15:53;;;;;;;;;1.67;1.67;;;;;23.16;37.32;100894.47;110438;1264;13372;-72
2022/09/08 03:18:20;;;;;;;;;2.00;2.00;;;;;23.15;37.41;100897.12;110470;1263;14195;-73
2022/09/08 03:20:48;;;;;;;;;3.00;3.00;;;;;23.15;37.41;100898.89;110440;1263;14919;-71
2022/09/08 03:23:15;;;;;;;;;2.00;2.00;;;;;23.16;37.33;100904.11;110423;1264;14436;-71
2022/09/08 03:25:43;;;;;;;;;2.00;2.00;;;;;23.16;37.29;100900.83;110377;1264;14947;-71
2022/09/08 03:28:10;;;;;;;;;2.00;2.00;;;;;23.15;37.30;100896.36;110469;1264;15517;-73
2022/09/08 03:30:37;;;;;;;;;2.00;2.00;;;;;23.15;37.32;100889.50;110483;1264;12977;-71
2022/09/08 03:33:05;;;;;;;;;2.00;2.00;;;;;23.14;37.29;100885.72;110479;1264;17541;-72
2022/09/08 03:35:33;;;;;;;;;2.33;2.33;;;;;23.14;37.29;100882.09;110467;1264;15119;-72
2022/09/08 03:38:00;;;;;;;;;2.00;2.00;;;;;23.15;37.32;100875.04;110395;1265;13485;-72
2022/09/08 03:40:28;;;;;;;;;2.00;2.00;;;;;23.15;37.32;100873.02;110440;1264;14502;-70
2022/09/08 03:42:55;;;;;;;;;3.00;2.33;;;;;23.16;37.36;100876.55;110475;1263;13217;-72
2022/09/08 03:45:23;;;;;;;;;2.00;2.00;;;;;23.16;37.29;100875.80;110476;1264;15198;-72
2022/09/08 03:47:50;;;;;;;;;2.00;2.00;;;;;23.16;37.28;100871.13;110388;1264;15300;-70
2022/09/08 03:50:18;;;;;;;;;2.00;2.00;;;;;23.16;37.39;100869.23;110251;1263;13805;-71
2022/09/08 03:52:45;;;;;;;;;3.00;2.00;;;;;23.16;37.33;100868.14;110395;1264;14341;-71
2022/09/08 03:55:13;;;;;;;;;2.00;2.00;;;;;23.15;37.38;100863.67;110499;1264;13043;-72
2022/09/08 03:57:40;;;;;;;;;2.00;2.00;;;;;23.15;37.41;100867.25;110483;1263;13210;-72
2022/09/08 04:00:08;;;;;;;;;3.00;2.00;;;;;23.16;37.43;100875.05;110469;1264;14176;-73
2022/09/08 04:02:35;;;;;;;;;1.00;1.00;;;;;23.16;37.43;100876.34;110456;1264;14219;-71
2022/09/08 04:05:03;;;;;;;;;3.00;2.67;;;;;23.16;37.43;100871.88;110471;1264;13957;-71
2022/09/08 04:07:31;;;;;;;;;2.00;2.00;;;;;23.16;37.49;100871.21;110482;1264;14782;-71
2022/09/08 04:10:00;;;;;;;;;1.00;1.00;;;;;23.15;37.39;100869.15;110486;1264;12940;-71
2022/09/08 04:12:28;;;;;;;;;2.00;2.00;;;;;23.16;37.52;100869.65;110378;1264;13467;-75
2022/09/08 04:14:55;;;;;;;;;2.00;2.00;;;;;23.15;37.52;100872.98;110457;1263;14588;-73
2022/09/08 04:17:22;;;;;;;;;2.00;2.00;;;;;23.15;37.51;100873.02;110446;1264;15286;-71
2022/09/08 04:19:50;;;;;;;;;2.00;2.00;;;;;23.16;37.50;100868.39;110449;1264;14906;-71
2022/09/08 04:22:17;;;;;;;;;2.00;2.00;;;;;23.16;37.49;100865.27;110482;1264;14775;-72
2022/09/08 04:24:45;;;;;;;;;2.00;2.00;;;;;23.16;37.50;100860.52;110493;1264;13153;-72
2022/09/08 04:27:13;;;;;;;;;2.00;2.00;;;;;23.14;37.56;100859.09;110472;1263;15165;-72
2022/09/08 04:29:40;;;;;;;;;2.00;2.00;;;;;23.14;37.50;100860.02;110468;1264;15307;-72
2022/09/08 04:32:08;;;;;;;;;2.33;2.00;;;;;23.14;37.53;100857.83;110482;1264;14454;-72
2022/09/08 04:34:35;;;;;;;;;2.00;2.00;;;;;23.14;37.50;100856.35;110446;1264;14965;-71
2022/09/08 04:37:03;;;;;;;;;2.00;2.00;;;;;23.14;37.56;100858.74;110499;1264;13219;-73
2022/09/08 04:39:30;;;;;;;;;2.00;2.00;;;;;23.14;37.53;100864.09;110474;1264;15719;-72
2022/09/08 04:41:58;;;;;;;;;2.00;2.00;;;;;23.14;37.50;100868.26;110468;1264;14817;-71
2022/09/08 04:44:25;;;;;;;;;2.00;2.00;;;;;23.14;37.53;100873.00;110416;1264;14910;-72
2022/09/08 04:46:53;;;;;;;;;2.00;2.00;;;;;23.14;37.58;100873.88;110403;1264;14748;-72
2022/09/08 04:49:20;;;;;;;;;2.00;2.00;;;;;23.13;37.52;100877.28;110429;1263;15323;-72
2022/09/08 04:51:50;;;;;;;;;1.00;1.00;;;;;23.14;37.50;100876.41;110386;1264;16937;-72
2022/09/08 04:54:17;;;;;;;;;2.33;2.33;;;;;23.15;37.53;100875.58;110363;1264;14948;-72
2022/09/08 04:56:45;;;;;;;;;5.00;3.67;;;;;23.11;37.54;100871.91;110386;1264;14503;-71
2022/09/08 04:59:13;;;;;;;;;7.00;6.33;;;;;23.09;37.20;100874.39;110441;1264;14118;-73
2022/09/08 05:01:40;;;;;;;;;8.00;7.00;;;;;22.97;36.89;100874.73;110403;1264;13963;-72
2022/09/08 05:04:08;;;;;;;;;7.67;7.00;;;;;22.91;36.40;100872.25;110442;1264;15076;-71
2022/09/08 05:06:36;;;;;;;;;6.50;6.50;;;;;22.84;36.41;100872.71;110397;1264;11689;-71
2022/09/08 05:09:03;;;;;;;;;8.00;8.00;;;;;22.80;36.28;100871.10;110365;1264;14748;-71
2022/09/08 05:11:31;;;;;;;;;7.33;7.33;;;;;22.80;36.09;100871.75;110394;1264;15022;-72
2022/09/08 05:13:59;;;;;;;;;10.50;9.00;;;;;22.76;35.88;100875.10;110429;1264;14711;-72
2022/09/08 05:16:26;;;;;;;;;11.00;11.00;;;;;22.76;35.57;100873.59;109294;1264;1532788;-70
2022/09/08 05:18:54;;;;;;;;;10.00;10.00;;;;;22.62;35.40;100869.34;110437;1264;13140;-72
2022/09/08 05:21:22;;;;;;;;;11.00;11.00;;;;;22.38;35.32;100877.81;110384;1264;15307;-72
2022/09/08 05:23:49;;;;;;;;;11.50;10.00;;;;;22.25;35.33;100880.95;110374;1263;14501;-72
2022/09/08 05:26:17;;;;;;;;;11.00;10.00;;;;;22.24;35.14;100883.41;110424;1264;16709;-72
2022/09/08 05:28:44;;;;;;;;;8.00;8.00;;;;;22.32;35.25;100883.37;110296;1264;15592;-71
2022/09/08 05:31:12;;;;;;;;;7.00;7.00;;;;;22.54;35.23;100876.66;110267;1264;15239;-71
2022/09/08 05:33:40;;;;;;;;;9.67;8.67;;;;;22.74;35.27;100883.22;110493;1264;13404;-73
2022/09/08 05:36:07;;;;;;;;;8.00;7.50;;;;;22.86;35.28;100889.94;110437;1264;14693;-73
2022/09/08 05:38:35;;;;;;;;;6.00;5.33;;;;;22.93;35.25;100892.67;110446;1263;14605;-71
2022/09/08 05:41:02;;;;;;;;;7.00;7.00;;;;;22.98;35.27;100894.67;110417;1264;15082;-73
2022/09/08 05:43:29;;;;;;;;;7.00;7.00;;;;;22.78;35.10;100892.47;110328;1264;14130;-71
2022/09/08 05:45:57;;;;;;;;;11.00;10.00;;;;;22.47;35.08;100894.27;110382;1265;13202;-71
2022/09/08 05:48:25;;;;;;;;;13.00;10.00;;;;;22.39;35.20;100890.39;110419;1264;14154;-72
2022/09/08 05:50:53;;;;;;;;;11.67;10.00;;;;;22.28;34.88;100891.88;110540;1263;14755;-70
2022/09/08 05:53:21;;;;;;;;;11.33;10.33;;;;;22.24;34.92;100890.13;110443;1264;14987;-71
2022/09/08 05:55:48;;;;;;;;;13.33;11.33;;;;;22.24;34.86;100889.83;110441;1264;14081;-73
2022/09/08 05:58:16;;;;;;;;;11.00;11.00;;;;;22.18;34.87;100893.73;110391;1264;14516;-71
2022/09/08 06:00:43;;;;;;;;;11.67;11.00;;;;;22.20;34.96;100903.42;110385;1264;13117;-73
2022/09/08 06:03:11;;;;;;;;;11.00;11.00;;;;;22.14;34.87;100907.85;110302;1263;14332;-73
2022/09/08 06:05:39;;;;;;;;;9.67;9.67;;;;;22.12;34.87;100911.41;110439;1264;14788;-69
2022/09/08 06:08:06;;;;;;;;;10.00;10.00;;;;;22.21;34.78;100908.55;110388;1265;15768;-69
2022/09/08 06:10:35;;;;;;;;;12.00;11.00;;;;;22.17;34.73;100906.27;110425;1264;15131;-71
2022/09/08 06:13:03;;;;;;;;;12.00;11.00;;;;;22.24;34.74;100909.82;110485;1264;13140;-72
2022/09/08 06:15:30;;;;;;;;;11.00;9.50;;;;;22.46;34.79;100914.87;110414;1264;15189;-72
2022/09/08 06:18:01;;;;;;;;;10.00;10.00;;;;;22.70;34.95;100914.69;110410;1264;14699;-73
2022/09/08 06:20:28;;;;;;;;;8.00;8.00;;;;;22.85;35.21;100918.82;110367;1264;15193;-73
2022/09/08 06:22:56;;;;;;;;;9.33;9.33;;;;;22.96;35.52;100921.45;110421;1263;14508;-72
2022/09/08 06:25:23;;;;;;;;;7.00;6.00;;;;;23.03;35.79;100924.29;110398;1264;12877;-72
2022/09/08 06:27:51;;;;;;;;;7.00;7.00;;;;;23.06;36.07;100917.42;110415;1264;12684;-73
2022/09/08 06:30:19;;;;;;;;;6.00;6.00;;;;;23.10;36.43;100911.42;110367;1263;13331;-71
2022/09/08 06:32:46;;;;;;;;;6.00;6.00;;;;;23.12;36.59;100907.27;110184;1264;14041;-71
2022/09/08 06:35:13;;;;;;;;;5.33;5.00;;;;;23.18;36.90;100909.66;110344;1264;13936;-71
2022/09/08 06:37:41;;;;;;;;;5.33;5.33;;;;;23.21;37.07;100907.84;110359;1264;15102;-71
2022/09/08 06:40:09;;;;;;;;;6.00;6.00;;;;;23.24;37.15;100907.95;110350;1264;14790;-70
2022/09/08 06:42:36;;;;;;;;;6.00;5.33;;;;;23.28;37.32;100907.05;110373;1263;13233;-71
2022/09/08 06:45:04;;;;;;;;;5.33;5.33;;;;;23.32;37.49;100901.84;110288;1265;13233;-71
2022/09/08 06:47:32;;;;;;;;;7.00;6.00;;;;;23.35;37.57;100899.77;110329;1264;15117;-71
2022/09/08 06:49:59;;;;;;;;;6.33;5.00;;;;;23.41;37.68;100902.25;110319;1264;21860;-73
2022/09/08 06:52:27;;;;;;;;;6.00;5.00;;;;;23.46;37.79;100902.02;110344;1264;14595;-70
2022/09/08 06:54:54;;;;;;;;;5.00;5.00;;;;;23.50;37.66;100900.77;110411;1263;16879;-71
2022/09/08 06:57:21;;;;;;;;;7.00;6.00;;;;;23.50;37.48;100893.03;110358;1264;13206;-72
2022/09/08 06:59:49;;;;;;;;;7.00;6.00;;;;;23.50;37.46;100885.88;110294;1264;14996;-71
2022/09/08 07:02:16;;;;;;;;;5.00;5.00;;;;;23.51;37.37;100880.05;110377;1264;13173;-72
2022/09/08 07:04:44;;;;;;;;;74.00;53.67;;;;;23.51;37.32;100885.59;110254;1264;14614;-71
2022/09/08 07:07:12;;;;;;;;;89.67;63.00;;;;;23.54;37.31;100889.92;110307;1264;14273;-70
2022/09/08 07:09:40;;;;;;;;;76.00;53.33;;;;;23.53;37.20;100890.70;110314;1264;10639;-71
2022/09/08 07:12:07;;;;;;;;;46.00;40.00;;;;;23.53;37.13;100888.52;110332;1265;12473;-70
2022/09/08 07:14:34;;;;;;;;;42.67;37.33;;;;;23.57;37.14;100894.46;110348;1264;14113;-70
2022/09/08 07:17:02;;;;;;;;;32.00;30.00;;;;;23.60;37.03;100891.82;110349;1264;14642;-72
2022/09/08 07:19:29;;;;;;;;;32.00;25.00;;;;;23.59;36.92;100895.63;110344;1264;14467;-72
2022/09/08 07:21:56;;;;;;;;;17.00;16.33;;;;;23.43;36.63;100892.33;110348;1264;13310;-71
2022/09/08 07:24:24;;;;;;;;;19.33;17.67;;;;;23.22;36.04;100893.01;110296;1264;14125;-71
2022/09/08 07:26:52;;;;;;;;;19.00;16.50;;;;;23.15;36.16;100893.87;110316;1264;14576;-70
2022/09/08 07:29:19;;;;;;;;;16.00;13.00;;;;;23.19;35.94;100893.67;110337;1264;14759;-71
2022/09/08 07:31:47;;;;;;;;;17.00;12.00;;;;;23.34;35.95;100896.27;110365;1264;15324;-68
2022/09/08 07:34:14;;;;;;;;;14.33;13.33;;;;;23.44;35.88;100899.39;110211;1264;14732;-70
2022/09/08 07:36:41;;;;;;;;;12.00;11.00;;;;;23.51;35.91;100903.23;110252;1264;13334;-69
2022/09/08 07:39:08;;;;;;;;;11.00;10.67;;;;;23.54;35.79;100900.46;110401;1264;14298;-69
2022/09/08 07:41:36;;;;;;;;;8.00;8.00;;;;;23.54;35.69;100898.83;110326;1264;14568;-71
2022/09/08 07:44:04;;;;;;;;;11.33;10.67;;;;;23.52;35.52;100899.08;110380;1264;14635;-69
2022/09/08 07:46:31;;;;;;;;;9.00;9.00;;;;;23.16;34.95;100899.39;110371;1264;13627;-70
2022/09/08 07:48:58;;;;;;;;;11.67;10.67;;;;;22.85;34.80;100900.56;110343;1264;13295;-69
2022/09/08 07:51:27;;;;;;;;;12.00;11.00;;;;;22.86;34.86;100899.20;110371;1264;13375;-70
2022/09/08 07:53:56;;;;;;;;;10.67;10.00;;;;;22.82;34.71;100903.23;110355;1264;18098;-70
2022/09/08 07:56:23;;;;;;;;;14.00;12.00;;;;;22.93;34.84;100902.64;110315;1263;13044;-70
2022/09/08 07:58:51;;;;;;;;;12.33;11.00;;;;;22.98;34.55;100894.64;110352;1264;14052;-70
2022/09/08 08:01:18;;;;;;;;;11.33;9.00;;;;;22.88;34.23;100893.89;110379;1265;15129;-70
2022/09/08 08:03:45;;;;;;;;;12.00;10.50;;;;;22.82;34.04;100895.54;110385;1264;13279;-70
2022/09/08 08:06:13;;;;;;;;;10.00;9.33;;;;;22.66;34.03;100894.02;110341;1264;13857;-72
2022/09/08 08:08:40;;;;;;;;;10.00;8.00;;;;;22.48;34.13;100889.48;110365;1264;13780;-72
2022/09/08 08:11:08;;;;;;;;;8.00;8.00;;;;;22.78;34.41;100890.90;110406;1264;13149;-72
2022/09/08 08:13:37;;;;;;;;;7.00;7.00;;;;;23.05;34.34;100902.39;110416;1264;13887;-72
2022/09/08 08:16:04;;;;;;;;;7.00;7.00;;;;;23.20;34.46;100896.51;110429;1264;15080;-73
2022/09/08 08:18:32;;;;;;;;;10.50;8.00;;;;;23.31;34.38;100895.35;110368;1264;13719;-72
2022/09/08 08:20:59;;;;;;;;;7.00;7.00;;;;;23.34;34.14;100888.13;110426;1264;14730;-72
2022/09/08 08:23:26;;;;;;;;;7.33;7.33;;;;;23.36;33.85;100874.27;110346;1263;14806;-69
2022/09/08 08:25:53;;;;;;;;;8.67;7.00;;;;;23.39;33.73;100877.95;110387;1264;14076;-68
2022/09/08 08:28:21;;;;;;;;;7.00;7.00;;;;;23.42;33.66;100880.64;110277;1264;13126;-72
2022/09/08 08:30:49;;;;;;;;;6.67;6.67;;;;;23.48;33.69;100879.95;110408;1264;12905;-71
2022/09/08 08:33:16;;;;;;;;;8.00;8.00;;;;;23.46;33.64;100878.84;110303;1264;18112;-71
2022/09/08 08:35:44;;;;;;;;;11.00;8.00;;;;;23.40;33.47;100885.61;110412;1264;14146;-71
2022/09/08 08:38:11;;;;;;;;;8.00;8.00;;;;;23.29;33.49;100872.60;110362;1265;14397;-70
2022/09/08 08:40:39;;;;;;;;;9.33;8.00;;;;;23.35;33.59;100869.19;110382;1264;14418;-71
2022/09/08 08:43:06;;;;;;;;;7.67;7.33;;;;;23.41;33.46;100878.19;110456;1264;13108;-70
2022/09/08 08:45:34;;;;;;;;;7.67;7.67;;;;;23.45;33.45;100864.95;110388;1264;15214;-70
2022/09/08 08:48:01;;;;;;;;;7.00;7.00;;;;;23.50;33.36;100859.65;110407;1264;13340;-71
2022/09/08 08:50:29;;;;;;;;;8.33;7.00;;;;;23.48;33.36;100863.30;110420;1264;14182;-70
2022/09/08 08:52:56;;;;;;;;;7.00;7.00;;;;;23.46;33.32;100865.88;110441;1264;14490;-70
2022/09/08 08:55:25;;;;;;;;;7.00;7.00;;;;;23.40;33.34;100860.25;110445;1263;14648;-71
2022/09/08 08:57:52;;;;;;;;;10.00;10.00;;;;;23.18;33.02;100854.23;110341;1264;13356;-68
2022/09/08 09:00:19;;;;;;;;;8.00;8.00;;;;;23.07;32.93;100845.85;110261;1264;14602;-70
2022/09/08 09:02:47;;;;;;;;;8.00;8.00;;;;;23.04;32.68;100840.55;110423;1263;13235;-69
2022/09/08 09:05:14;;;;;;;;;8.00;7.67;;;;;23.08;32.60;100839.47;110395;1263;13544;-70
2022/09/08 09:07:41;;;;;;;;;10.67;10.00;;;;;23.07;32.36;100839.63;110424;1264;13460;-71
2022/09/08 09:10:09;;;;;;;;;8.00;8.00;;;;;22.97;32.10;100835.87;110365;1263;12995;-70
2022/09/08 09:12:36;;;;;;;;;8.67;8.67;;;;;22.82;31.99;100827.49;110386;1263;13194;-70
2022/09/08 09:15:03;;;;;;;;;9.33;9.33;;;;;22.77;32.01;100832.33;110451;1264;14589;-70
2022/09/08 09:17:31;;;;;;;;;10.00;10.00;;;;;22.72;31.93;100838.64;110433;1264;14889;-70
2022/09/08 09:19:58;;;;;;;;;10.00;9.33;;;;;22.65;32.07;100838.95;110413;1264;15006;-68
2022/09/08 09:22:25;;;;;;;;;8.00;8.00;;;;;22.74;32.09;100845.52;110406;1263;14550;-70
2022/09/08 09:24:53;;;;;;;;;10.00;8.67;;;;;22.81;32.06;100850.80;110441;1264;13199;-70
2022/09/08 09:27:20;;;;;;;;;8.00;8.00;;;;;22.84;32.04;100849.67;110374;1264;15621;-69
2022/09/08 09:29:47;;;;;;;;;10.00;10.00;;;;;22.80;31.99;100860.58;110429;1264;14781;-70
2022/09/08 09:32:14;;;;;;;;;9.67;8.00;;;;;22.75;32.00;100862.82;110325;1264;15394;-69
2022/09/08 09:34:42;;;;;;;;;8.00;8.00;;;;;22.76;31.98;100858.46;110414;1264;15216;-70
2022/09/08 09:37:09;;;;;;;;;7.00;7.00;;;;;22.80;31.90;100853.08;110320;1264;13795;-66
2022/09/08 09:39:37;;;;;;;;;6.00;6.00;;;;;22.81;31.91;100853.19;110367;1264;14846;-70
2022/09/08 09:42:04;;;;;;;;;8.00;8.00;;;;;22.87;31.94;100849.48;110377;1264;14745;-70
2022/09/08 09:44:31;;;;;;;;;9.67;8.00;;;;;22.86;31.89;100852.23;110376;1264;14826;-69
2022/09/08 09:46:58;;;;;;;;;7.00;6.00;;;;;22.81;31.93;100854.45;110338;1263;14440;-69
2022/09/08 09:49:25;;;;;;;;;10.00;8.00;;;;;22.79;31.92;100853.27;110395;1263;14036;-68
2022/09/08 09:51:53;;;;;;;;;7.33;7.00;;;;;22.73;31.86;100852.94;110453;1264;13140;-71
2022/09/08 09:54:20;;;;;;;;;10.00;8.00;;;;;22.77;31.85;100856.00;110411;1264;13610;-70
2022/09/08 09:56:47;;;;;;;;;10.00;8.33;;;;;22.75;31.70;100850.23;110433;1264;14665;-70
2022/09/08 09:59:15;;;;;;;;;8.00;8.00;;;;;22.63;31.72;100848.22;110429;1264;16715;-69
2022/09/08 10:01:43;;;;;;;;;8.00;8.00;;;;;22.60;31.81;100845.01;110422;1264;14340;-70
2022/09/08 10:04:10;;;;;;;;;8.00;7.67;;;;;22.61;31.76;100847.22;110449;1264;14069;-70
2022/09/08 10:06:38;;;;;;;;;10.00;9.00;;;;;22.57;31.72;100834.59;110343;1264;14788;-70
2022/09/08 10:09:06;;;;;;;;;7.00;7.00;;;;;22.63;31.76;100832.24;110391;1264;14379;-71
2022/09/08 10:11:33;;;;;;;;;7.33;7.00;;;;;22.72;31.60;100829.55;110373;1264;13450;-70
2022/09/08 10:14:00;;;;;;;;;11.00;10.00;;;;;22.50;31.68;100828.14;110400;1264;13266;-70
2022/09/08 10:16:28;;;;;;;;;7.00;7.00;;;;;22.57;31.68;100835.52;110443;1263;13015;-70
2022/09/08 10:18:55;;;;;;;;;8.00;7.00;;;;;22.62;31.53;100831.59;110430;1263;11371;-70
2022/09/08 10:21:22;;;;;;;;;7.67;7.67;;;;;22.53;31.59;100834.43;110414;1264;14669;-70
2022/09/08 10:23:50;;;;;;;;;7.67;7.67;;;;;22.44;31.73;100839.47;110390;1263;13700;-70
2022/09/08 10:26:17;;;;;;;;;7.67;7.00;;;;;22.44;31.78;100829.47;110347;1264;14932;-69
2022/09/08 10:28:44;;;;;;;;;9.67;9.67;;;;;22.43;31.81;100826.92;110441;1264;14526;-70
2022/09/08 10:31:12;;;;;;;;;10.00;8.00;;;;;22.49;31.88;100825.59;110426;1264;13164;-69
2022/09/08 10:33:39;;;;;;;;;8.33;8.33;;;;;22.52;31.90;100818.71;110464;1262;14197;-70
2022/09/08 10:36:06;;;;;;;;;7.67;7.67;;;;;22.51;32.02;100815.91;110408;1264;15136;-69
2022/09/08 10:38:34;;;;;;;;;8.00;7.33;;;;;22.58;32.06;100814.30;110352;1264;15432;-69
2022/09/08 10:41:02;;;;;;;;;10.00;9.00;;;;;22.56;32.04;100816.54;110245;1264;14911;-70
2022/09/08 10:43:29;;;;;;;;;8.33;8.33;;;;;22.49;32.19;100815.21;110199;1264;14296;-70
2022/09/08 10:45:56;;;;;;;;;10.00;10.00;;;;;22.57;32.28;100811.30;110439;1265;13377;-71
2022/09/08 10:48:24;;;;;;;;;9.33;9.33;;;;;22.49;32.44;100810.33;110426;1264;14872;-71
2022/09/08 10:50:51;;;;;;;;;10.00;9.00;;;;;22.39;32.62;100802.38;110228;1264;14686;-71
2022/09/08 10:53:18;;;;;;;;;9.00;9.00;;;;;22.45;32.80;100801.53;110397;1264;14831;-70
2022/09/08 10:55:46;;;;;;;;;9.00;9.00;;;;;22.47;32.76;100801.65;110379;1264;13551;-72
2022/09/08 10:58:13;;;;;;;;;10.00;9.00;;;;;22.40;32.71;100798.85;110413;1263;12753;-71
2022/09/08 11:00:40;;;;;;;;;10.00;10.00;;;;;22.58;32.69;100808.96;110350;1264;14401;-71
2022/09/08 11:03:08;;;;;;;;;7.67;7.67;;;;;22.54;32.74;100808.74;110339;1262;12793;-70
2022/09/08 11:05:35;;;;;;;;;9.00;9.00;;;;;22.33;32.84;100805.92;110424;1264;12974;-71
2022/09/08 11:08:03;;;;;;;;;11.33;9.67;;;;;22.27;32.83;100801.88;110394;1264;13750;-71
2022/09/08 11:10:30;;;;;;;;;9.67;9.00;;;;;22.37;33.01;100811.37;110402;1264;13852;-71
2022/09/08 11:12:57;;;;;;;;;9.00;9.00;;;;;22.40;32.90;100797.72;110442;1263;13006;-70
2022/09/08 11:15:24;;;;;;;;;8.33;8.33;;;;;22.51;33.02;100788.35;110399;1264;14512;-71
2022/09/08 11:17:52;;;;;;;;;8.00;7.00;;;;;22.56;33.37;100789.77;110440;1263;15033;-70
2022/09/08 11:20:19;;;;;;;;;9.00;9.00;;;;;22.47;33.30;100789.96;110461;1263;18427;-71